sensor_id;sensor_type;location;lat;lon;timestamp;temperature;humidity
4647;DHT22;2336;47.822;7.564;2023-04-12T00:00:51;10.40;99.90
4647;DHT22;2336;47.822;7.564;2023-04-12T00:03:20;10.20;99.90
4647;DHT22;2336;47.822;7.564;2023-04-12T00:05:47;10.20;99.90
4647;DHT22;2336;47.822;7.564;2023-04-12T00:08:19;10.00;99.90
4647;DHT22;2336;47.822;7.564;2023-04-12T00:10:49;10.00;99.90
4647;DHT22;2336;47.822;7.564;2023-04-12T00:13:16;10.00;99.90
4647;DHT22;2336;47.822;7.564;2023-04-12T00:15:43;10.00;99.90
4647;DHT22;2336;47.822;7.564;2023-04-12T00:18:10;9.90;99.90
4647;DHT22;2336;47.822;7.564;2023-04-12T00:20:38;9.90;99.90
4647;DHT22;2336;47.822;7.564;2023-04-12T00:23:04;9.90;99.90
4647;DHT22;2336;47.822;7.564;2023-04-12T00:25:31;9.90;99.90
4647;DHT22;2336;47.822;7.564;2023-04-12T00:27:58;9.90;99.90
4647;DHT22;2336;47.822;7.564;2023-04-12T00:30:25;9.90;99.90
4647;DHT22;2336;47.822;7.564;2023-04-12T00:32:52;9.80;99.90
4647;DHT22;2336;47.822;7.564;2023-04-12T00:35:19;9.80;99.90
4647;DHT22;2336;47.822;7.564;2023-04-12T00:37:47;9.70;99.90
4647;DHT22;2336;47.822;7.564;2023-04-12T00:40:14;9.60;99.90
4647;DHT22;2336;47.822;7.564;2023-04-12T00:42:40;9.60;99.90
4647;DHT22;2336;47.822;7.564;2023-04-12T00:45:08;9.60;99.90
4647;DHT22;2336;47.822;7.564;2023-04-12T00:47:35;9.60;99.90
4647;DHT22;2336;47.822;7.564;2023-04-12T00:50:03;9.60;99.90
4647;DHT22;2336;47.822;7.564;2023-04-12T00:52:31;9.60;99.90
4647;DHT22;2336;47.822;7.564;2023-04-12T00:55:02;9.60;99.90
4647;DHT22;2336;47.822;7.564;2023-04-12T00:57:33;9.60;99.90
4647;DHT22;2336;47.822;7.564;2023-04-12T01:00:01;9.70;99.90
4647;DHT22;2336;47.822;7.564;2023-04-12T01:02:29;9.70;99.90
4647;DHT22;2336;47.822;7.564;2023-04-12T01:04:56;9.70;99.90
4647;DHT22;2336;47.822;7.564;2023-04-12T01:07:31;9.60;99.90
4647;DHT22;2336;47.822;7.564;2023-04-12T01:10:06;9.70;99.90
4647;DHT22;2336;47.822;7.564;2023-04-12T01:12:39;9.60;99.90
4647;DHT22;2336;47.822;7.564;2023-04-12T01:15:09;9.60;99.90
4647;DHT22;2336;47.822;7.564;2023-04-12T01:17:40;9.50;99.90
4647;DHT22;2336;47.822;7.564;2023-04-12T01:20:14;9.50;99.90
4647;DHT22;2336;47.822;7.564;2023-04-12T01:23:06;9.40;99.90
4647;DHT22;2336;47.822;7.564;2023-04-12T01:25:44;9.20;99.90
4647;DHT22;2336;47.822;7.564;2023-04-12T01:28:22;9.10;99.90
4647;DHT22;2336;47.822;7.564;2023-04-12T01:30:52;9.00;99.90
4647;DHT22;2336;47.822;7.564;2023-04-12T01:33:19;9.00;99.90
4647;DHT22;2336;47.822;7.564;2023-04-12T01:35:47;9.00;99.90
4647;DHT22;2336;47.822;7.564;2023-04-12T01:38:15;9.10;99.90
4647;DHT22;2336;47.822;7.564;2023-04-12T01:40:42;9.10;99.90
4647;DHT22;2336;47.822;7.564;2023-04-12T01:43:11;9.10;99.90
4647;DHT22;2336;47.822;7.564;2023-04-12T01:45:39;9.10;99.90
4647;DHT22;2336;47.822;7.564;2023-04-12T01:48:07;9.00;99.90
4647;DHT22;2336;47.822;7.564;2023-04-12T01:50:40;9.00;99.90
4647;DHT22;2336;47.822;7.564;2023-04-12T01:53:12;9.00;99.90
4647;DHT22;2336;47.822;7.564;2023-04-12T01:55:42;9.10;99.90
4647;DHT22;2336;47.822;7.564;2023-04-12T01:58:11;9.00;99.90
4647;DHT22;2336;47.822;7.564;2023-04-12T02:00:43;8.90;99.90
4647;DHT22;2336;47.822;7.564;2023-04-12T02:03:10;8.90;99.90
4647;DHT22;2336;47.822;7.564;2023-04-12T02:05:38;8.90;99.90
4647;DHT22;2336;47.822;7.564;2023-04-12T02:08:05;8.90;99.90
4647;DHT22;2336;47.822;7.564;2023-04-12T02:10:32;8.90;99.90
4647;DHT22;2336;47.822;7.564;2023-04-12T02:13:01;9.00;99.90
4647;DHT22;2336;47.822;7.564;2023-04-12T02:15:28;9.00;99.90
4647;DHT22;2336;47.822;7.564;2023-04-12T02:17:56;8.90;99.90
4647;DHT22;2336;47.822;7.564;2023-04-12T02:20:24;8.80;99.90
4647;DHT22;2336;47.822;7.564;2023-04-12T02:22:51;8.90;99.90
4647;DHT22;2336;47.822;7.564;2023-04-12T02:25:18;8.90;99.90
4647;DHT22;2336;47.822;7.564;2023-04-12T02:27:45;8.90;99.90
4647;DHT22;2336;47.822;7.564;2023-04-12T02:30:13;8.90;99.90
4647;DHT22;2336;47.822;7.564;2023-04-12T02:32:40;8.90;99.90
4647;DHT22;2336;47.822;7.564;2023-04-12T02:35:12;8.90;99.90
4647;DHT22;2336;47.822;7.564;2023-04-12T02:37:42;8.80;99.90
4647;DHT22;2336;47.822;7.564;2023-04-12T02:40:10;8.90;99.90
4647;DHT22;2336;47.822;7.564;2023-04-12T02:42:37;8.80;99.90
4647;DHT22;2336;47.822;7.564;2023-04-12T02:45:04;8.90;99.90
4647;DHT22;2336;47.822;7.564;2023-04-12T02:47:31;8.90;99.90
4647;DHT22;2336;47.822;7.564;2023-04-12T02:49:58;8.90;99.90
4647;DHT22;2336;47.822;7.564;2023-04-12T02:52:26;8.90;99.90
4647;DHT22;2336;47.822;7.564;2023-04-12T02:54:54;8.90;99.90
4647;DHT22;2336;47.822;7.564;2023-04-12T02:57:21;8.90;99.90
4647;DHT22;2336;47.822;7.564;2023-04-12T02:59:49;8.90;99.90
4647;DHT22;2336;47.822;7.564;2023-04-12T03:02:17;9.00;99.90
4647;DHT22;2336;47.822;7.564;2023-04-12T03:04:44;8.90;99.90
4647;DHT22;2336;47.822;7.564;2023-04-12T03:07:11;8.90;99.90
4647;DHT22;2336;47.822;7.564;2023-04-12T03:09:39;9.00;99.90
4647;DHT22;2336;47.822;7.564;2023-04-12T03:12:07;9.00;99.90
4647;DHT22;2336;47.822;7.564;2023-04-12T03:14:33;9.10;99.90
4647;DHT22;2336;47.822;7.564;2023-04-12T03:17:00;9.20;99.90
4647;DHT22;2336;47.822;7.564;2023-04-12T03:19:27;9.40;99.90
4647;DHT22;2336;47.822;7.564;2023-04-12T03:21:57;9.50;99.90
4647;DHT22;2336;47.822;7.564;2023-04-12T03:24:24;9.50;99.90
4647;DHT22;2336;47.822;7.564;2023-04-12T03:26:52;9.60;99.90
4647;DHT22;2336;47.822;7.564;2023-04-12T03:29:20;9.60;99.90
4647;DHT22;2336;47.822;7.564;2023-04-12T03:31:47;9.70;99.90
4647;DHT22;2336;47.822;7.564;2023-04-12T03:34:13;9.70;99.90
4647;DHT22;2336;47.822;7.564;2023-04-12T03:36:40;9.80;99.90
4647;DHT22;2336;47.822;7.564;2023-04-12T03:39:07;9.80;99.90
4647;DHT22;2336;47.822;7.564;2023-04-12T03:41:34;9.90;99.90
4647;DHT22;2336;47.822;7.564;2023-04-12T03:44:02;10.00;99.90
4647;DHT22;2336;47.822;7.564;2023-04-12T03:46:29;10.00;99.90
4647;DHT22;2336;47.822;7.564;2023-04-12T03:48:56;10.00;99.90
4647;DHT22;2336;47.822;7.564;2023-04-12T03:51:23;10.00;99.90
4647;DHT22;2336;47.822;7.564;2023-04-12T03:53:51;10.00;99.90
4647;DHT22;2336;47.822;7.564;2023-04-12T03:56:18;10.00;99.90
4647;DHT22;2336;47.822;7.564;2023-04-12T03:58:45;10.10;99.90
4647;DHT22;2336;47.822;7.564;2023-04-12T04:01:14;10.00;99.90
4647;DHT22;2336;47.822;7.564;2023-04-12T04:03:42;10.00;99.90
4647;DHT22;2336;47.822;7.564;2023-04-12T04:06:10;10.10;99.90
4647;DHT22;2336;47.822;7.564;2023-04-12T04:08:37;10.20;99.90
4647;DHT22;2336;47.822;7.564;2023-04-12T04:11:05;10.20;99.90
4647;DHT22;2336;47.822;7.564;2023-04-12T04:13:31;10.20;99.90
4647;DHT22;2336;47.822;7.564;2023-04-12T04:16:01;10.20;99.90
4647;DHT22;2336;47.822;7.564;2023-04-12T04:18:33;10.10;99.90
4647;DHT22;2336;47.822;7.564;2023-04-12T04:21:00;10.10;99.90
4647;DHT22;2336;47.822;7.564;2023-04-12T04:23:27;10.20;99.90
4647;DHT22;2336;47.822;7.564;2023-04-12T04:25:55;10.40;99.90
4647;DHT22;2336;47.822;7.564;2023-04-12T04:28:21;10.40;99.90
4647;DHT22;2336;47.822;7.564;2023-04-12T04:30:49;10.50;99.90
4647;DHT22;2336;47.822;7.564;2023-04-12T04:33:20;10.60;99.90
4647;DHT22;2336;47.822;7.564;2023-04-12T04:35:49;10.70;99.90
4647;DHT22;2336;47.822;7.564;2023-04-12T04:38:16;10.70;99.90
4647;DHT22;2336;47.822;7.564;2023-04-12T04:40:44;10.80;99.90
4647;DHT22;2336;47.822;7.564;2023-04-12T04:43:12;10.90;99.90
4647;DHT22;2336;47.822;7.564;2023-04-12T04:45:43;10.90;99.90
4647;DHT22;2336;47.822;7.564;2023-04-12T04:48:12;10.90;99.90
4647;DHT22;2336;47.822;7.564;2023-04-12T04:50:39;10.90;99.90
4647;DHT22;2336;47.822;7.564;2023-04-12T04:53:07;10.90;99.90
4647;DHT22;2336;47.822;7.564;2023-04-12T04:55:34;11.00;99.90
4647;DHT22;2336;47.822;7.564;2023-04-12T04:58:01;11.00;99.90
4647;DHT22;2336;47.822;7.564;2023-04-12T05:00:27;11.00;99.90
4647;DHT22;2336;47.822;7.564;2023-04-12T05:02:54;10.90;99.90
4647;DHT22;2336;47.822;7.564;2023-04-12T05:05:21;10.90;99.90
4647;DHT22;2336;47.822;7.564;2023-04-12T05:07:48;11.00;99.90
4647;DHT22;2336;47.822;7.564;2023-04-12T05:10:16;10.90;99.90
4647;DHT22;2336;47.822;7.564;2023-04-12T05:12:43;10.90;99.90
4647;DHT22;2336;47.822;7.564;2023-04-12T05:15:10;10.90;99.90
4647;DHT22;2336;47.822;7.564;2023-04-12T05:17:37;11.00;99.90
4647;DHT22;2336;47.822;7.564;2023-04-12T05:20:04;11.00;99.90
4647;DHT22;2336;47.822;7.564;2023-04-12T05:22:32;11.00;99.90
4647;DHT22;2336;47.822;7.564;2023-04-12T05:24:59;11.00;99.90
4647;DHT22;2336;47.822;7.564;2023-04-12T05:27:28;11.00;99.90
4647;DHT22;2336;47.822;7.564;2023-04-12T05:29:55;11.00;99.90
4647;DHT22;2336;47.822;7.564;2023-04-12T05:32:23;11.00;99.90
4647;DHT22;2336;47.822;7.564;2023-04-12T05:34:50;11.00;99.90
4647;DHT22;2336;47.822;7.564;2023-04-12T05:37:17;11.00;99.90
4647;DHT22;2336;47.822;7.564;2023-04-12T05:39:43;11.00;99.90
4647;DHT22;2336;47.822;7.564;2023-04-12T05:42:10;11.00;99.90
4647;DHT22;2336;47.822;7.564;2023-04-12T05:44:38;11.10;99.90
4647;DHT22;2336;47.822;7.564;2023-04-12T05:47:05;11.00;99.90
4647;DHT22;2336;47.822;7.564;2023-04-12T05:49:32;11.00;99.90
4647;DHT22;2336;47.822;7.564;2023-04-12T05:51:59;11.10;99.90
4647;DHT22;2336;47.822;7.564;2023-04-12T05:54:26;11.10;99.90
4647;DHT22;2336;47.822;7.564;2023-04-12T05:56:53;11.10;99.90
4647;DHT22;2336;47.822;7.564;2023-04-12T05:59:20;11.10;99.90
4647;DHT22;2336;47.822;7.564;2023-04-12T06:01:49;11.10;99.90
4647;DHT22;2336;47.822;7.564;2023-04-12T06:04:16;11.10;99.90
4647;DHT22;2336;47.822;7.564;2023-04-12T06:06:42;11.10;99.90
4647;DHT22;2336;47.822;7.564;2023-04-12T06:09:09;11.10;99.90
4647;DHT22;2336;47.822;7.564;2023-04-12T06:11:36;11.20;99.90
4647;DHT22;2336;47.822;7.564;2023-04-12T06:14:03;11.30;99.90
4647;DHT22;2336;47.822;7.564;2023-04-12T06:16:30;11.30;99.90
4647;DHT22;2336;47.822;7.564;2023-04-12T06:18:58;11.40;99.90
4647;DHT22;2336;47.822;7.564;2023-04-12T06:21:25;11.40;99.90
4647;DHT22;2336;47.822;7.564;2023-04-12T06:23:52;11.60;99.90
4647;DHT22;2336;47.822;7.564;2023-04-12T06:26:19;11.60;99.90
4647;DHT22;2336;47.822;7.564;2023-04-12T06:28:45;11.70;99.90
4647;DHT22;2336;47.822;7.564;2023-04-12T06:31:12;11.80;99.90
4647;DHT22;2336;47.822;7.564;2023-04-12T06:33:39;11.80;99.90
4647;DHT22;2336;47.822;7.564;2023-04-12T06:36:08;11.90;99.90
4647;DHT22;2336;47.822;7.564;2023-04-12T06:38:38;12.00;99.90
4647;DHT22;2336;47.822;7.564;2023-04-12T06:41:05;12.10;99.90
4647;DHT22;2336;47.822;7.564;2023-04-12T06:43:32;12.00;99.90
4647;DHT22;2336;47.822;7.564;2023-04-12T06:45:58;12.10;99.90
4647;DHT22;2336;47.822;7.564;2023-04-12T06:48:27;12.10;99.90
4647;DHT22;2336;47.822;7.564;2023-04-12T06:50:54;12.10;99.90
4647;DHT22;2336;47.822;7.564;2023-04-12T06:53:22;12.10;99.90
4647;DHT22;2336;47.822;7.564;2023-04-12T06:55:49;12.20;99.90
4647;DHT22;2336;47.822;7.564;2023-04-12T06:58:16;12.30;99.90
4647;DHT22;2336;47.822;7.564;2023-04-12T07:00:43;12.30;99.90
4647;DHT22;2336;47.822;7.564;2023-04-12T07:03:09;12.40;99.90
4647;DHT22;2336;47.822;7.564;2023-04-12T07:05:37;12.50;99.90
4647;DHT22;2336;47.822;7.564;2023-04-12T07:08:03;12.50;99.90
4647;DHT22;2336;47.822;7.564;2023-04-12T07:10:32;12.50;99.90
4647;DHT22;2336;47.822;7.564;2023-04-12T07:13:00;12.60;99.90
4647;DHT22;2336;47.822;7.564;2023-04-12T07:15:31;12.60;99.90
4647;DHT22;2336;47.822;7.564;2023-04-12T07:17:58;12.70;99.90
4647;DHT22;2336;47.822;7.564;2023-04-12T07:20:24;12.70;99.90
4647;DHT22;2336;47.822;7.564;2023-04-12T07:22:51;12.60;99.90
4647;DHT22;2336;47.822;7.564;2023-04-12T07:25:18;12.70;99.90
4647;DHT22;2336;47.822;7.564;2023-04-12T07:27:46;12.80;99.90
4647;DHT22;2336;47.822;7.564;2023-04-12T07:30:12;12.70;99.90
4647;DHT22;2336;47.822;7.564;2023-04-12T07:32:39;12.70;99.90
4647;DHT22;2336;47.822;7.564;2023-04-12T07:35:07;12.90;99.90
4647;DHT22;2336;47.822;7.564;2023-04-12T07:37:34;12.90;99.90
4647;DHT22;2336;47.822;7.564;2023-04-12T07:40:01;12.90;99.90
4647;DHT22;2336;47.822;7.564;2023-04-12T07:42:28;12.90;99.90
4647;DHT22;2336;47.822;7.564;2023-04-12T07:44:56;12.90;99.90
4647;DHT22;2336;47.822;7.564;2023-04-12T07:47:23;12.90;99.90
4647;DHT22;2336;47.822;7.564;2023-04-12T07:49:49;12.90;99.90
4647;DHT22;2336;47.822;7.564;2023-04-12T07:52:16;12.90;99.90
4647;DHT22;2336;47.822;7.564;2023-04-12T07:54:43;12.90;99.90
4647;DHT22;2336;47.822;7.564;2023-04-12T07:57:09;13.00;99.90
4647;DHT22;2336;47.822;7.564;2023-04-12T07:59:36;13.10;99.90
4647;DHT22;2336;47.822;7.564;2023-04-12T08:02:04;13.20;99.90
4647;DHT22;2336;47.822;7.564;2023-04-12T08:04:31;13.30;99.90
4647;DHT22;2336;47.822;7.564;2023-04-12T08:06:58;13.40;99.90
4647;DHT22;2336;47.822;7.564;2023-04-12T08:09:25;13.40;99.90
4647;DHT22;2336;47.822;7.564;2023-04-12T08:11:51;13.50;99.90
4647;DHT22;2336;47.822;7.564;2023-04-12T08:14:18;13.50;99.90
4647;DHT22;2336;47.822;7.564;2023-04-12T08:16:45;13.60;99.90
4647;DHT22;2336;47.822;7.564;2023-04-12T08:19:13;13.50;99.90
4647;DHT22;2336;47.822;7.564;2023-04-12T08:21:40;13.50;99.90
4647;DHT22;2336;47.822;7.564;2023-04-12T08:24:08;13.30;99.90
4647;DHT22;2336;47.822;7.564;2023-04-12T08:26:35;13.10;99.90
4647;DHT22;2336;47.822;7.564;2023-04-12T08:29:02;12.80;99.90
4647;DHT22;2336;47.822;7.564;2023-04-12T08:31:29;12.60;99.90
4647;DHT22;2336;47.822;7.564;2023-04-12T08:33:56;12.40;99.90
4647;DHT22;2336;47.822;7.564;2023-04-12T08:36:27;12.30;99.90
4647;DHT22;2336;47.822;7.564;2023-04-12T08:38:57;12.20;99.90
4647;DHT22;2336;47.822;7.564;2023-04-12T08:41:24;12.30;99.90
4647;DHT22;2336;47.822;7.564;2023-04-12T08:43:51;12.30;99.90
4647;DHT22;2336;47.822;7.564;2023-04-12T08:46:19;12.20;99.90
4647;DHT22;2336;47.822;7.564;2023-04-12T08:48:48;12.20;99.90
4647;DHT22;2336;47.822;7.564;2023-04-12T08:51:16;12.20;99.90
4647;DHT22;2336;47.822;7.564;2023-04-12T08:53:44;12.10;99.90
4647;DHT22;2336;47.822;7.564;2023-04-12T08:56:12;12.10;99.90
4647;DHT22;2336;47.822;7.564;2023-04-12T08:58:40;12.20;99.90
4647;DHT22;2336;47.822;7.564;2023-04-12T09:01:10;12.20;99.90
4647;DHT22;2336;47.822;7.564;2023-04-12T09:03:41;12.30;99.90
4647;DHT22;2336;47.822;7.564;2023-04-12T09:06:09;12.40;99.90
4647;DHT22;2336;47.822;7.564;2023-04-12T09:08:36;12.40;99.90
4647;DHT22;2336;47.822;7.564;2023-04-12T09:11:20;12.30;99.90
4647;DHT22;2336;47.822;7.564;2023-04-12T09:13:47;12.20;99.90
4647;DHT22;2336;47.822;7.564;2023-04-12T09:16:15;12.10;99.90
4647;DHT22;2336;47.822;7.564;2023-04-12T09:18:47;12.10;99.90
4647;DHT22;2336;47.822;7.564;2023-04-12T09:21:16;12.20;99.90
4647;DHT22;2336;47.822;7.564;2023-04-12T09:23:43;12.10;99.90
4647;DHT22;2336;47.822;7.564;2023-04-12T09:26:26;12.00;99.90
4647;DHT22;2336;47.822;7.564;2023-04-12T09:28:54;12.00;99.90
4647;DHT22;2336;47.822;7.564;2023-04-12T09:31:20;12.00;99.90
4647;DHT22;2336;47.822;7.564;2023-04-12T09:33:47;12.00;99.90
4647;DHT22;2336;47.822;7.564;2023-04-12T09:36:14;12.00;99.90
4647;DHT22;2336;47.822;7.564;2023-04-12T09:38:58;12.00;99.90
4647;DHT22;2336;47.822;7.564;2023-04-12T09:41:26;12.00;99.90
4647;DHT22;2336;47.822;7.564;2023-04-12T09:43:57;11.90;99.90
4647;DHT22;2336;47.822;7.564;2023-04-12T09:46:24;11.80;99.90
4647;DHT22;2336;47.822;7.564;2023-04-12T09:48:52;11.80;99.90
4647;DHT22;2336;47.822;7.564;2023-04-12T09:51:26;11.80;99.90
4647;DHT22;2336;47.822;7.564;2023-04-12T09:53:55;11.80;99.90
4647;DHT22;2336;47.822;7.564;2023-04-12T09:56:25;11.80;99.90
4647;DHT22;2336;47.822;7.564;2023-04-12T09:58:53;11.90;99.90
4647;DHT22;2336;47.822;7.564;2023-04-12T10:01:22;12.00;99.90
4647;DHT22;2336;47.822;7.564;2023-04-12T10:03:49;12.20;99.90
4647;DHT22;2336;47.822;7.564;2023-04-12T10:06:18;12.20;99.90
4647;DHT22;2336;47.822;7.564;2023-04-12T10:08:48;12.20;99.90
4647;DHT22;2336;47.822;7.564;2023-04-12T10:11:16;12.20;99.90
4647;DHT22;2336;47.822;7.564;2023-04-12T10:13:46;12.40;99.90
4647;DHT22;2336;47.822;7.564;2023-04-12T10:16:14;12.30;99.90
4647;DHT22;2336;47.822;7.564;2023-04-12T10:18:41;12.30;99.90
4647;DHT22;2336;47.822;7.564;2023-04-12T10:21:10;12.30;99.90
4647;DHT22;2336;47.822;7.564;2023-04-12T10:23:37;12.30;99.90
4647;DHT22;2336;47.822;7.564;2023-04-12T10:26:04;12.20;99.90
4647;DHT22;2336;47.822;7.564;2023-04-12T10:28:32;12.30;99.90
4647;DHT22;2336;47.822;7.564;2023-04-12T10:31:26;12.40;99.90
4647;DHT22;2336;47.822;7.564;2023-04-12T10:33:54;12.50;99.90
4647;DHT22;2336;47.822;7.564;2023-04-12T10:36:50;12.60;99.90
4647;DHT22;2336;47.822;7.564;2023-04-12T10:39:18;12.60;99.90
4647;DHT22;2336;47.822;7.564;2023-04-12T10:42:15;12.70;99.90
4647;DHT22;2336;47.822;7.564;2023-04-12T10:44:42;12.80;99.90
4647;DHT22;2336;47.822;7.564;2023-04-12T10:47:10;12.90;99.90
4647;DHT22;2336;47.822;7.564;2023-04-12T10:49:37;12.90;99.90
4647;DHT22;2336;47.822;7.564;2023-04-12T10:52:12;12.90;99.90
4647;DHT22;2336;47.822;7.564;2023-04-12T10:54:40;13.00;99.90
4647;DHT22;2336;47.822;7.564;2023-04-12T10:57:41;13.00;99.90
4647;DHT22;2336;47.822;7.564;2023-04-12T11:00:09;13.20;99.90
4647;DHT22;2336;47.822;7.564;2023-04-12T11:03:07;13.30;99.90
4647;DHT22;2336;47.822;7.564;2023-04-12T11:05:56;13.40;99.90
4647;DHT22;2336;47.822;7.564;2023-04-12T11:08:25;13.50;99.90
4647;DHT22;2336;47.822;7.564;2023-04-12T11:10:52;13.50;99.90
4647;DHT22;2336;47.822;7.564;2023-04-12T11:13:27;13.70;99.90
4647;DHT22;2336;47.822;7.564;2023-04-12T11:15:54;14.00;99.90
4647;DHT22;2336;47.822;7.564;2023-04-12T11:18:22;14.10;99.90
4647;DHT22;2336;47.822;7.564;2023-04-12T11:20:50;14.00;99.90
4647;DHT22;2336;47.822;7.564;2023-04-12T11:23:18;13.90;99.90
4647;DHT22;2336;47.822;7.564;2023-04-12T11:25:49;14.10;99.90
4647;DHT22;2336;47.822;7.564;2023-04-12T11:28:16;14.20;99.90
4647;DHT22;2336;47.822;7.564;2023-04-12T11:30:50;14.30;99.90
4647;DHT22;2336;47.822;7.564;2023-04-12T11:33:33;14.50;99.90
4647;DHT22;2336;47.822;7.564;2023-04-12T11:36:03;14.70;99.90
4647;DHT22;2336;47.822;7.564;2023-04-12T11:38:31;14.90;99.90
4647;DHT22;2336;47.822;7.564;2023-04-12T11:40:59;15.10;99.90
4647;DHT22;2336;47.822;7.564;2023-04-12T11:43:26;15.50;99.90
4647;DHT22;2336;47.822;7.564;2023-04-12T11:45:58;15.40;99.90
4647;DHT22;2336;47.822;7.564;2023-04-12T11:48:25;15.50;99.90
4647;DHT22;2336;47.822;7.564;2023-04-12T11:50:52;15.60;99.90
4647;DHT22;2336;47.822;7.564;2023-04-12T11:53:26;15.50;99.90
4647;DHT22;2336;47.822;7.564;2023-04-12T11:55:55;15.50;99.90
4647;DHT22;2336;47.822;7.564;2023-04-12T11:58:22;15.60;99.90
4647;DHT22;2336;47.822;7.564;2023-04-12T12:00:49;15.70;99.90
4647;DHT22;2336;47.822;7.564;2023-04-12T12:03:18;15.60;99.90
4647;DHT22;2336;47.822;7.564;2023-04-12T12:05:46;15.70;99.90
4647;DHT22;2336;47.822;7.564;2023-04-12T12:08:13;15.90;99.90
4647;DHT22;2336;47.822;7.564;2023-04-12T12:10:40;15.90;99.90
4647;DHT22;2336;47.822;7.564;2023-04-12T12:13:10;15.70;99.90
4647;DHT22;2336;47.822;7.564;2023-04-12T12:15:37;15.80;99.90
4647;DHT22;2336;47.822;7.564;2023-04-12T12:18:06;15.70;99.90
4647;DHT22;2336;47.822;7.564;2023-04-12T12:20:40;15.70;99.90
4647;DHT22;2336;47.822;7.564;2023-04-12T12:23:07;15.90;99.90
4647;DHT22;2336;47.822;7.564;2023-04-12T12:25:34;16.00;99.90
4647;DHT22;2336;47.822;7.564;2023-04-12T12:28:01;16.10;99.90
4647;DHT22;2336;47.822;7.564;2023-04-12T12:30:30;16.00;99.90
4647;DHT22;2336;47.822;7.564;2023-04-12T12:32:57;15.90;99.90
4647;DHT22;2336;47.822;7.564;2023-04-12T12:35:24;15.90;99.90
4647;DHT22;2336;47.822;7.564;2023-04-12T12:37:53;16.10;99.90
4647;DHT22;2336;47.822;7.564;2023-04-12T12:40:28;16.50;99.90
4647;DHT22;2336;47.822;7.564;2023-04-12T12:42:57;16.80;99.90
4647;DHT22;2336;47.822;7.564;2023-04-12T12:45:25;17.20;99.90
4647;DHT22;2336;47.822;7.564;2023-04-12T12:47:53;17.10;99.90
4647;DHT22;2336;47.822;7.564;2023-04-12T12:50:22;17.30;99.90
4647;DHT22;2336;47.822;7.564;2023-04-12T12:52:49;17.20;99.90
4647;DHT22;2336;47.822;7.564;2023-04-12T12:55:18;17.40;99.90
4647;DHT22;2336;47.822;7.564;2023-04-12T12:57:46;17.30;99.90
4647;DHT22;2336;47.822;7.564;2023-04-12T13:00:14;17.30;99.90
4647;DHT22;2336;47.822;7.564;2023-04-12T13:02:42;17.10;99.90
4647;DHT22;2336;47.822;7.564;2023-04-12T13:05:10;17.10;99.90
4647;DHT22;2336;47.822;7.564;2023-04-12T13:07:37;16.90;99.90
4647;DHT22;2336;47.822;7.564;2023-04-12T13:10:05;16.70;99.90
4647;DHT22;2336;47.822;7.564;2023-04-12T13:12:33;16.70;99.90
4647;DHT22;2336;47.822;7.564;2023-04-12T13:15:00;16.70;99.90
4647;DHT22;2336;47.822;7.564;2023-04-12T13:17:27;16.60;99.90
4647;DHT22;2336;47.822;7.564;2023-04-12T13:19:54;16.60;99.90
4647;DHT22;2336;47.822;7.564;2023-04-12T13:22:21;16.50;99.90
4647;DHT22;2336;47.822;7.564;2023-04-12T13:24:48;16.40;99.90
4647;DHT22;2336;47.822;7.564;2023-04-12T13:27:15;16.40;99.90
4647;DHT22;2336;47.822;7.564;2023-04-12T13:29:43;16.30;99.90
4647;DHT22;2336;47.822;7.564;2023-04-12T13:32:10;16.30;99.90
4647;DHT22;2336;47.822;7.564;2023-04-12T13:34:38;16.30;99.90
4647;DHT22;2336;47.822;7.564;2023-04-12T13:37:05;16.30;99.90
4647;DHT22;2336;47.822;7.564;2023-04-12T13:39:32;16.30;99.90
4647;DHT22;2336;47.822;7.564;2023-04-12T13:41:59;16.30;99.90
4647;DHT22;2336;47.822;7.564;2023-04-12T13:44:27;16.40;99.90
4647;DHT22;2336;47.822;7.564;2023-04-12T13:46:55;16.30;99.90
4647;DHT22;2336;47.822;7.564;2023-04-12T13:49:22;16.40;99.90
4647;DHT22;2336;47.822;7.564;2023-04-12T13:51:49;16.50;99.90
4647;DHT22;2336;47.822;7.564;2023-04-12T13:54:16;16.50;99.90
4647;DHT22;2336;47.822;7.564;2023-04-12T13:56:42;16.60;99.90
4647;DHT22;2336;47.822;7.564;2023-04-12T13:59:09;16.60;99.90
4647;DHT22;2336;47.822;7.564;2023-04-12T14:01:36;16.60;99.90
4647;DHT22;2336;47.822;7.564;2023-04-12T14:04:05;16.70;99.90
4647;DHT22;2336;47.822;7.564;2023-04-12T14:06:32;16.60;99.90
4647;DHT22;2336;47.822;7.564;2023-04-12T14:08:58;16.60;99.90
4647;DHT22;2336;47.822;7.564;2023-04-12T14:11:25;16.60;99.90
4647;DHT22;2336;47.822;7.564;2023-04-12T14:13:52;16.60;99.90
4647;DHT22;2336;47.822;7.564;2023-04-12T14:16:19;16.60;99.90
4647;DHT22;2336;47.822;7.564;2023-04-12T14:18:45;16.50;99.90
4647;DHT22;2336;47.822;7.564;2023-04-12T14:21:14;16.60;99.90
4647;DHT22;2336;47.822;7.564;2023-04-12T14:23:41;16.70;99.90
4647;DHT22;2336;47.822;7.564;2023-04-12T14:26:10;16.70;99.90
4647;DHT22;2336;47.822;7.564;2023-04-12T14:28:40;16.70;99.90
4647;DHT22;2336;47.822;7.564;2023-04-12T14:31:07;16.50;99.90
4647;DHT22;2336;47.822;7.564;2023-04-12T14:33:34;16.10;99.90
4647;DHT22;2336;47.822;7.564;2023-04-12T14:36:01;15.90;99.90
4647;DHT22;2336;47.822;7.564;2023-04-12T14:38:30;15.90;99.90
4647;DHT22;2336;47.822;7.564;2023-04-12T14:40:57;16.00;99.90
4647;DHT22;2336;47.822;7.564;2023-04-12T14:43:24;16.00;99.90
4647;DHT22;2336;47.822;7.564;2023-04-12T14:45:51;15.90;99.90
4647;DHT22;2336;47.822;7.564;2023-04-12T14:48:19;15.90;99.90
4647;DHT22;2336;47.822;7.564;2023-04-12T14:50:46;15.70;99.90
4647;DHT22;2336;47.822;7.564;2023-04-12T14:53:12;15.60;99.90
4647;DHT22;2336;47.822;7.564;2023-04-12T14:55:43;15.60;99.90
4647;DHT22;2336;47.822;7.564;2023-04-12T14:58:11;15.50;99.90
4647;DHT22;2336;47.822;7.564;2023-04-12T15:00:37;15.50;99.90
4647;DHT22;2336;47.822;7.564;2023-04-12T15:03:04;15.40;99.90
4647;DHT22;2336;47.822;7.564;2023-04-12T15:05:31;15.40;99.90
4647;DHT22;2336;47.822;7.564;2023-04-12T15:07:58;15.30;99.90
4647;DHT22;2336;47.822;7.564;2023-04-12T15:10:25;15.20;99.90
4647;DHT22;2336;47.822;7.564;2023-04-12T15:12:53;15.10;99.90
4647;DHT22;2336;47.822;7.564;2023-04-12T15:15:22;14.80;99.90
4647;DHT22;2336;47.822;7.564;2023-04-12T15:17:49;14.80;99.90
4647;DHT22;2336;47.822;7.564;2023-04-12T15:20:16;14.80;99.90
4647;DHT22;2336;47.822;7.564;2023-04-12T15:22:42;14.70;99.90
4647;DHT22;2336;47.822;7.564;2023-04-12T15:25:10;14.70;99.90
4647;DHT22;2336;47.822;7.564;2023-04-12T15:27:37;14.60;99.90
4647;DHT22;2336;47.822;7.564;2023-04-12T15:30:06;14.60;99.90
4647;DHT22;2336;47.822;7.564;2023-04-12T15:32:35;14.30;99.90
4647;DHT22;2336;47.822;7.564;2023-04-12T15:35:03;13.80;99.90
4647;DHT22;2336;47.822;7.564;2023-04-12T15:37:31;13.30;99.90
4647;DHT22;2336;47.822;7.564;2023-04-12T15:39:58;12.70;99.90
4647;DHT22;2336;47.822;7.564;2023-04-12T15:42:25;12.20;99.90
4647;DHT22;2336;47.822;7.564;2023-04-12T15:44:52;12.10;99.90
4647;DHT22;2336;47.822;7.564;2023-04-12T15:47:20;12.00;99.90
4647;DHT22;2336;47.822;7.564;2023-04-12T15:49:47;12.10;99.90
4647;DHT22;2336;47.822;7.564;2023-04-12T15:52:13;12.10;99.90
4647;DHT22;2336;47.822;7.564;2023-04-12T15:54:41;12.10;99.90
4647;DHT22;2336;47.822;7.564;2023-04-12T15:57:07;12.20;99.90
4647;DHT22;2336;47.822;7.564;2023-04-12T15:59:36;12.30;99.90
4647;DHT22;2336;47.822;7.564;2023-04-12T16:02:03;12.40;99.90
4647;DHT22;2336;47.822;7.564;2023-04-12T16:04:32;12.50;99.90
4647;DHT22;2336;47.822;7.564;2023-04-12T16:06:59;12.50;99.90
4647;DHT22;2336;47.822;7.564;2023-04-12T16:09:26;12.50;99.90
4647;DHT22;2336;47.822;7.564;2023-04-12T16:11:53;12.60;99.90